createdAt,value
2023-05-01T00:07:31.640Z,100541.09
2023-05-01T00:17:33.369Z,100518.72
2023-05-01T00:27:36.312Z,100516.94
2023-05-01T00:37:38.586Z,100519.47
2023-05-01T00:47:41.361Z,100513.31
2023-05-01T00:57:47.846Z,100518.44
2023-05-01T01:07:59.362Z,100515.81
2023-05-01T01:18:06.445Z,100524.34
2023-05-01T01:28:16.260Z,100527.66
2023-05-01T01:38:23.573Z,100524.28
2023-05-01T01:48:31.873Z,100524.41
2023-05-01T01:58:37.246Z,100521.94
2023-05-01T02:08:43.104Z,100516.97
2023-05-01T02:18:50.833Z,100519.63
2023-05-01T02:28:55.275Z,100514.44
2023-05-01T02:38:58.007Z,100514.50
2023-05-01T02:49:01.814Z,100527.41
2023-05-01T02:59:07.596Z,100538.63
2023-05-01T03:09:11.876Z,100538.69
2023-05-01T03:19:13.533Z,100538.69
2023-05-01T03:29:15.511Z,100540.28
2023-05-01T03:39:19.309Z,100551.25
2023-05-01T03:49:22.960Z,100553.72
2023-05-01T03:59:26.206Z,100546.97
2023-05-01T04:09:29.913Z,100548.56
2023-05-01T04:19:32.694Z,100548.53
2023-05-01T04:29:35.669Z,100551.25
2023-05-01T04:39:39.314Z,100563.47
2023-05-01T04:49:48.124Z,100573.81
2023-05-01T04:59:52.620Z,100584.28
2023-05-01T05:10:04.393Z,100580.06
2023-05-01T05:20:20.265Z,100576.63
2023-05-01T05:30:24.505Z,100593.00
2023-05-01T05:40:30.053Z,100592.97
2023-05-01T05:50:31.698Z,100602.25
2023-05-01T06:00:33.880Z,100602.91
2023-05-01T06:10:36.015Z,100605.19
2023-05-01T06:20:39.398Z,100611.78
2023-05-01T06:30:41.148Z,100612.13
2023-05-01T06:40:45.514Z,100625.38
2023-05-01T06:50:47.423Z,100618.69
2023-05-01T07:00:54.569Z,100628.25
2023-05-01T07:10:59.654Z,100617.72
2023-05-01T07:21:01.517Z,100618.16
2023-05-01T07:31:13.484Z,100621.66
2023-05-01T07:41:16.123Z,100623.91
2023-05-01T07:51:20.822Z,100626.97
2023-05-01T08:01:24.046Z,100630.41
2023-05-01T08:11:29.553Z,100627.16
2023-05-01T08:21:31.548Z,100624.09
2023-05-01T08:31:33.331Z,100624.66
2023-05-01T08:41:37.968Z,100623.59
2023-05-01T08:51:43.336Z,100619.97
2023-05-01T09:01:47.378Z,100609.47
2023-05-01T09:12:09.887Z,100599.56
2023-05-01T09:22:17.909Z,100597.97
2023-05-01T09:32:26.261Z,100597.25
2023-05-01T09:42:28.174Z,100588.06
2023-05-01T09:52:49.747Z,100589.09
2023-05-01T10:02:52.137Z,100579.53
2023-05-01T10:12:54.178Z,100580.34
2023-05-01T10:22:57.857Z,100562.00
2023-05-01T10:33:00.713Z,100549.34
2023-05-01T10:43:31.285Z,100531.06
2023-05-01T10:53:34.256Z,100534.50
2023-05-01T11:03:39.354Z,100523.50
2023-05-01T11:13:59.916Z,100520.47
2023-05-01T11:24:07.180Z,100512.50
2023-05-01T11:34:10.196Z,100503.13
2023-05-01T11:44:19.256Z,100483.47
2023-05-01T11:54:21.022Z,100488.34
2023-05-01T12:04:31.571Z,100483.81
2023-05-01T12:14:34.265Z,100473.34
2023-05-01T12:24:36.457Z,100469.06
2023-05-01T12:34:39.416Z,100448.88
2023-05-01T12:44:41.437Z,100449.38
2023-05-01T12:54:45.462Z,100439.25
2023-05-01T13:04:49.568Z,100424.25
2023-05-01T13:14:53.417Z,100418.34
2023-05-01T13:24:58.580Z,100410.41
2023-05-01T13:35:03.967Z,100399.03
2023-05-01T13:45:06.607Z,100385.53
2023-05-01T13:55:08.569Z,100373.22
2023-05-01T14:05:10.632Z,100363.53
2023-05-01T14:15:14.292Z,100359.06
2023-05-01T14:25:31.615Z,100350.94
2023-05-01T14:35:34.528Z,100340.31
2023-05-01T14:45:37.104Z,100327.22
2023-05-01T14:55:39.409Z,100316.94
2023-05-01T15:05:42.343Z,100321.94
2023-05-01T15:15:43.893Z,100308.22
2023-05-01T15:25:45.917Z,100303.31
2023-05-01T15:35:51.732Z,100312.44
2023-05-01T15:45:57.876Z,100296.25
2023-05-01T15:55:59.751Z,100305.28
2023-05-01T16:06:03.085Z,100305.06
2023-05-01T16:16:09.858Z,100307.88
2023-05-01T16:26:12.488Z,100302.69
2023-05-01T16:36:17.192Z,100294.09
2023-05-01T16:46:21.173Z,100290.06
2023-05-01T16:56:24.151Z,100287.88
2023-05-01T17:06:26.529Z,100286.28
2023-05-01T17:16:28.525Z,100290.88
2023-05-01T17:26:33.574Z,100283.72
2023-05-01T17:36:37.898Z,100285.28
2023-05-01T17:46:39.607Z,100284.78
2023-05-01T17:56:41.676Z,100276.22
2023-05-01T18:06:46.651Z,100280.56
2023-05-01T18:16:49.792Z,100272.47
2023-05-01T18:26:52.034Z,100283.91
2023-05-01T18:36:55.533Z,100293.41
2023-05-01T18:47:01.562Z,100295.94
2023-05-01T18:57:04.212Z,100301.47
2023-05-01T19:07:07.297Z,100312.25
2023-05-01T19:17:10.096Z,100311.31
2023-05-01T19:27:13.108Z,100312.56
2023-05-01T19:37:28.843Z,100307.81
2023-05-01T19:47:31.235Z,100307.47
2023-05-01T19:57:37.145Z,100314.56
2023-05-01T20:07:40.155Z,100304.44
2023-05-01T20:17:48.305Z,100311.06
2023-05-01T20:27:52.912Z,100311.41
2023-05-01T20:37:56.227Z,100308.41
2023-05-01T20:48:01.954Z,100314.75
2023-05-01T20:58:04.029Z,100318.59
2023-05-01T21:08:07.086Z,100329.38
2023-05-01T21:18:12.475Z,100335.75
2023-05-01T21:28:16.139Z,100339.19
2023-05-01T21:38:18.951Z,100348.69
2023-05-01T21:48:20.801Z,100356.78
2023-05-01T21:58:24.777Z,100343.16
2023-05-01T22:08:26.513Z,100350.19
2023-05-01T22:18:30.425Z,100344.84
2023-05-01T22:28:33.552Z,100348.41
2023-05-01T22:38:35.319Z,100341.19
2023-05-01T22:48:38.040Z,100341.09
2023-05-01T22:58:43.080Z,100347.53
2023-05-01T23:08:44.925Z,100351.41
2023-05-01T23:18:46.601Z,100343.72
2023-05-01T23:28:50.480Z,100337.97
2023-05-01T23:38:53.554Z,100339.91
2023-05-01T23:49:00.276Z,100337.41
2023-05-01T23:59:03.991Z,100332.34
